Time;durP1;ratioP1;P1;durP2;ratioP2;P2;SDS_P1;SDS_P2;PMS_P1;PMS_P2;Temp;Humidity;BMP_temperature;BMP_pressure;BME280_temperature;BME280_humidity;BME280_pressure;Samples;Min_cycle;Max_cycle;Signal;HPM_P1;HPM_P2
2022/07/21 00:01:07;;;;;;;;;;;;;;;;;;5040725;28;811;-65
2022/07/21 00:03:32;;;;;;;;;;;;;;;;;;5041758;28;1508;-65
2022/07/21 00:05:58;;;;;;;;;;;;;;;;;;5040919;28;1446;-65
2022/07/21 00:08:23;;;;;;;;;;;;;;;;;;5039095;28;1424;-65
2022/07/21 00:10:48;;;;;;;;;;;;;;;;;;5040241;28;810;-65
2022/07/21 00:13:13;;;;;;;;;;;;;;;;;;5040607;28;1471;-65
2022/07/21 00:15:39;;;;;;;;;;;;;;;;;;5060185;28;1894;-65
2022/07/21 00:18:04;;;;;;;;;;;;;;;;;;5058544;28;1498;-65
2022/07/21 00:20:30;;;;;;;;;;;;;;;;;;5060380;28;806;-66
2022/07/21 00:22:56;;;;;;;;;;;;;;;;;;5058599;28;1566;-65
2022/07/21 00:25:21;;;;;;;;;;;;;;;;;;5040551;28;783;-65
2022/07/21 00:27:46;;;;;;;;;;;;;;;;;;5039654;28;1195;-65
2022/07/21 00:30:12;;;;;;;;;;;;;;;;;;5037650;28;1520;-66
2022/07/21 00:32:37;;;;;;;;;;;;;;;;;;5060054;28;771;-65
2022/07/21 00:35:03;;;;;;;;;;;;;;;;;;5046893;28;1520;-65
2022/07/21 00:37:28;;;;;;;;;;;;;;;;;;5021630;28;1902;-66
2022/07/21 00:39:54;;;;;;;;;;;;;;;;;;5060003;28;1578;-65
2022/07/21 00:42:23;;;;;;;;;;;;;;;;;;5058804;28;1452;-66
2022/07/21 00:44:48;;;;;;;;;;;;;;;;;;5060955;28;1435;-65
2022/07/21 00:47:13;;;;;;;;;;;;;;;;;;5062442;28;1286;-65
2022/07/21 00:49:38;;;;;;;;;;;;;;;;;;5048736;28;1550;-64
2022/07/21 00:52:04;;;;;;;;;;;;;;;;;;5043803;28;818;-64
2022/07/21 00:54:29;;;;;;;;;;;;;;;;;;5059673;28;1496;-64
2022/07/21 00:56:54;;;;;;;;;;;;;;;;;;5062576;28;2386;-66
2022/07/21 00:59:19;;;;;;;;;;;;;;;;;;5063564;28;914;-66
2022/07/21 01:01:44;;;;;;;;;;;;;;;;;;5051904;28;1527;-66
2022/07/21 01:04:10;;;;;;;;;;;;;;;;;;5044469;28;1406;-66
2022/07/21 01:06:35;;;;;;;;;;;;;;;;;;5042508;28;1604;-66
2022/07/21 01:09:00;;;;;;;;;;;;;;;;;;5053274;28;1472;-66
2022/07/21 01:11:26;;;;;;;;;;;;;;;;;;5061922;28;1487;-66
2022/07/21 01:13:52;;;;;;;;;;;;;;;;;;5054434;28;1487;-66
2022/07/21 01:16:17;;;;;;;;;;;;;;;;;;5042536;28;1957;-66
2022/07/21 01:18:42;;;;;;;;;;;;;;;;;;5049389;28;1443;-66
2022/07/21 01:21:46;;;;;;;;;;;;;;;;;;5061610;28;1396;-66
2022/07/21 01:24:11;;;;;;;;;;;;;;;;;;4993254;28;1445;-66
2022/07/21 01:26:44;;;;;;;;;;;;;;;;;;4982560;28;1524;-66
2022/07/21 01:29:11;;;;;;;;;;;;;;;;;;5022793;28;973;-66
2022/07/21 01:31:36;;;;;;;;;;;;;;;;;;5042766;28;890;-66
2022/07/21 01:34:02;;;;;;;;;;;;;;;;;;5044222;28;1467;-66
2022/07/21 01:36:27;;;;;;;;;;;;;;;;;;5041786;28;1906;-67
2022/07/21 01:41:36;;;;;;;;;;;;;;;;;;5046143;28;1479;-66
2022/07/21 01:44:03;;;;;;;;;;;;;;;;;;5063213;28;832;-66
2022/07/21 01:46:29;;;;;;;;;;;;;;;;;;5061930;28;1519;-66
2022/07/21 01:48:54;;;;;;;;;;;;;;;;;;5052271;28;1503;-66
2022/07/21 01:51:20;;;;;;;;;;;;;;;;;;5041692;28;1424;-65
2022/07/21 01:53:45;;;;;;;;;;;;;;;;;;5051171;28;1412;-66
2022/07/21 01:56:10;;;;;;;;;;;;;;;;;;5042430;28;1955;-65
2022/07/21 01:58:35;;;;;;;;;;;;;;;;;;5041279;28;1318;-65
2022/07/21 02:01:00;;;;;;;;;;;;;;;;;;5057281;28;1515;-65
2022/07/21 02:03:26;;;;;;;;;;;;;;;;;;5050873;28;1484;-64
2022/07/21 02:05:51;;;;;;;;;;;;;;;;;;5046583;28;1451;-65
2022/07/21 02:08:16;;;;;;;;;;;;;;;;;;5046622;28;1519;-65
2022/07/21 02:10:42;;;;;;;;;;;;;;;;;;5062246;28;886;-65
2022/07/21 02:13:07;;;;;;;;;;;;;;;;;;5062165;28;1558;-65
2022/07/21 02:15:33;;;;;;;;;;;;;;;;;;5046616;28;1898;-65
2022/07/21 02:17:58;;;;;;;;;;;;;;;;;;5052308;28;1573;-65
2022/07/21 02:20:23;;;;;;;;;;;;;;;;;;5042415;28;1021;-65
2022/07/21 02:22:49;;;;;;;;;;;;;;;;;;5042911;28;1518;-65
2022/07/21 02:25:14;;;;;;;;;;;;;;;;;;5062092;28;1001;-65
2022/07/21 02:27:40;;;;;;;;;;;;;;;;;;5076638;28;1355;-65
2022/07/21 02:30:06;;;;;;;;;;;;;;;;;;5065452;28;1778;-65
2022/07/21 02:32:31;;;;;;;;;;;;;;;;;;5056934;28;1305;-65
2022/07/21 02:34:56;;;;;;;;;;;;;;;;;;5051092;28;1468;-65
2022/07/21 02:37:22;;;;;;;;;;;;;;;;;;5043289;28;1995;-66
2022/07/21 02:39:47;;;;;;;;;;;;;;;;;;5060583;28;1484;-65
2022/07/21 02:42:13;;;;;;;;;;;;;;;;;;5043796;28;1328;-66
2022/07/21 02:44:38;;;;;;;;;;;;;;;;;;5061917;28;933;-66
2022/07/21 02:47:03;;;;;;;;;;;;;;;;;;5051377;28;1526;-66
2022/07/21 02:49:29;;;;;;;;;;;;;;;;;;5057111;28;1480;-66
2022/07/21 02:51:54;;;;;;;;;;;;;;;;;;5056396;28;1515;-66
2022/07/21 02:54:19;;;;;;;;;;;;;;;;;;5054776;28;1460;-66
2022/07/21 02:56:44;;;;;;;;;;;;;;;;;;5060640;28;1894;-65
2022/07/21 02:59:09;;;;;;;;;;;;;;;;;;5061580;28;787;-66
2022/07/21 03:01:34;;;;;;;;;;;;;;;;;;5054506;28;1592;-65
2022/07/21 03:04:00;;;;;;;;;;;;;;;;;;5051013;28;1449;-66
2022/07/21 03:06:25;;;;;;;;;;;;;;;;;;5060002;28;1515;-65
2022/07/21 03:08:50;;;;;;;;;;;;;;;;;;5052118;28;1475;-65
2022/07/21 03:11:15;;;;;;;;;;;;;;;;;;5041601;28;981;-65
2022/07/21 03:13:40;;;;;;;;;;;;;;;;;;5041563;28;890;-65
2022/07/21 03:16:06;;;;;;;;;;;;;;;;;;5045776;28;1894;-65
2022/07/21 03:18:31;;;;;;;;;;;;;;;;;;5054416;28;1428;-65
2022/07/21 03:20:56;;;;;;;;;;;;;;;;;;5041210;28;1526;-65
2022/07/21 03:23:21;;;;;;;;;;;;;;;;;;5046254;28;1392;-65
2022/07/21 03:25:47;;;;;;;;;;;;;;;;;;5061546;28;811;-65
2022/07/21 03:28:12;;;;;;;;;;;;;;;;;;5058291;28;1297;-65
2022/07/21 03:30:37;;;;;;;;;;;;;;;;;;5041534;28;1567;-64
2022/07/21 03:33:03;;;;;;;;;;;;;;;;;;5049377;28;1324;-65
2022/07/21 03:35:28;;;;;;;;;;;;;;;;;;5044837;28;1528;-65
2022/07/21 03:37:55;;;;;;;;;;;;;;;;;;5051017;28;1902;-65
2022/07/21 03:40:23;;;;;;;;;;;;;;;;;;5057825;28;1431;-66
2022/07/21 03:42:48;;;;;;;;;;;;;;;;;;5057062;28;1314;-65
2022/07/21 03:45:13;;;;;;;;;;;;;;;;;;5053510;28;1173;-65
2022/07/21 03:47:39;;;;;;;;;;;;;;;;;;5060329;28;1238;-65
2022/07/21 03:50:05;;;;;;;;;;;;;;;;;;5041794;28;1491;-65
2022/07/21 03:52:30;;;;;;;;;;;;;;;;;;5041366;28;1460;-65
2022/07/21 03:55:07;;;;;;;;;;;;;;;;;;5050703;28;1577;-65
2022/07/21 03:57:36;;;;;;;;;;;;;;;;;;5046008;28;1898;-65
2022/07/21 04:00:03;;;;;;;;;;;;;;;;;;5047261;28;1265;-65
2022/07/21 04:02:28;;;;;;;;;;;;;;;;;;5043653;28;1358;-65
2022/07/21 04:04:54;;;;;;;;;;;;;;;;;;5044166;28;1511;-66
2022/07/21 04:07:19;;;;;;;;;;;;;;;;;;5049030;28;1342;-65
2022/07/21 04:09:44;;;;;;;;;;;;;;;;;;5026522;28;1523;-66
2022/07/21 04:12:09;;;;;;;;;;;;;;;;;;5040909;28;783;-66
2022/07/21 04:14:34;;;;;;;;;;;;;;;;;;5040310;28;1527;-66
2022/07/21 04:17:00;;;;;;;;;;;;;;;;;;5039760;28;1898;-67
2022/07/21 04:19:25;;;;;;;;;;;;;;;;;;5055041;28;1530;-69
2022/07/21 04:21:50;;;;;;;;;;;;;;;;;;5064407;28;973;-66
2022/07/21 04:24:15;;;;;;;;;;;;;;;;;;5051489;28;1511;-66
2022/07/21 04:26:40;;;;;;;;;;;;;;;;;;5045834;28;1211;-66
2022/07/21 04:29:07;;;;;;;;;;;;;;;;;;5055897;28;1150;-66
2022/07/21 04:31:32;;;;;;;;;;;;;;;;;;5048654;28;1489;-66
2022/07/21 04:33:57;;;;;;;;;;;;;;;;;;5054130;28;1215;-66
2022/07/21 04:36:22;;;;;;;;;;;;;;;;;;5050468;28;1967;-66
2022/07/21 04:38:48;;;;;;;;;;;;;;;;;;5052468;28;1223;-66
2022/07/21 04:41:13;;;;;;;;;;;;;;;;;;5044262;28;1514;-66
2022/07/21 04:43:38;;;;;;;;;;;;;;;;;;5058045;28;1535;-64
2022/07/21 04:46:04;;;;;;;;;;;;;;;;;;5047400;28;1563;-65
2022/07/21 04:48:29;;;;;;;;;;;;;;;;;;5048958;28;1522;-65
2022/07/21 04:50:54;;;;;;;;;;;;;;;;;;5063732;28;905;-65
2022/07/21 04:53:19;;;;;;;;;;;;;;;;;;5046402;28;1546;-63
2022/07/21 04:55:45;;;;;;;;;;;;;;;;;;5043363;28;1909;-63
2022/07/21 04:58:10;;;;;;;;;;;;;;;;;;5058465;28;1337;-63
2022/07/21 05:00:35;;;;;;;;;;;;;;;;;;5050746;28;1488;-60
2022/07/21 05:03:01;;;;;;;;;;;;;;;;;;5060982;28;1363;-60
2022/07/21 05:05:26;;;;;;;;;;;;;;;;;;5054733;28;1200;-60
2022/07/21 05:07:51;;;;;;;;;;;;;;;;;;5059022;28;1270;-60
2022/07/21 05:10:18;;;;;;;;;;;;;;;;;;5062756;28;1467;-60
2022/07/21 05:12:43;;;;;;;;;;;;;;;;;;5029205;28;1527;-61
2022/07/21 05:15:11;;;;;;;;;;;;;;;;;;5054498;28;1495;-61
2022/07/21 05:17:36;;;;;;;;;;;;;;;;;;5042096;28;1948;-62
2022/07/21 05:20:02;;;;;;;;;;;;;;;;;;5043359;28;1424;-61
2022/07/21 05:22:27;;;;;;;;;;;;;;;;;;5043313;28;792;-62
2022/07/21 05:24:52;;;;;;;;;;;;;;;;;;5025276;28;988;-61
2022/07/21 05:27:18;;;;;;;;;;;;;;;;;;5042388;28;1586;-61
2022/07/21 05:29:43;;;;;;;;;;;;;;;;;;5034979;28;1453;-62
2022/07/21 05:32:08;;;;;;;;;;;;;;;;;;5062948;28;1474;-62
2022/07/21 05:34:33;;;;;;;;;;;;;;;;;;5062806;28;878;-63
2022/07/21 05:36:59;;;;;;;;;;;;;;;;;;5062066;28;1959;-62
2022/07/21 05:39:24;;;;;;;;;;;;;;;;;;5062767;28;938;-62
2022/07/21 05:41:49;;;;;;;;;;;;;;;;;;5062740;28;846;-62
2022/07/21 05:44:14;;;;;;;;;;;;;;;;;;5054125;28;1559;-63
2022/07/21 05:46:39;;;;;;;;;;;;;;;;;;5041896;28;1192;-62
2022/07/21 05:49:05;;;;;;;;;;;;;;;;;;5042716;28;969;-62
2022/07/21 05:51:30;;;;;;;;;;;;;;;;;;5042691;28;830;-62
2022/07/21 05:53:55;;;;;;;;;;;;;;;;;;5042805;28;1012;-62
2022/07/21 05:56:20;;;;;;;;;;;;;;;;;;5041832;28;2024;-62
2022/07/21 05:58:45;;;;;;;;;;;;;;;;;;5043531;28;1440;-62
2022/07/21 06:01:15;;;;;;;;;;;;;;;;;;5042544;28;1068;-61
2022/07/21 06:03:42;;;;;;;;;;;;;;;;;;5042472;28;826;-61
2022/07/21 06:06:07;;;;;;;;;;;;;;;;;;5042466;28;819;-61
2022/07/21 06:08:32;;;;;;;;;;;;;;;;;;5041523;28;1219;-62
2022/07/21 06:10:58;;;;;;;;;;;;;;;;;;5042524;28;1040;-62
2022/07/21 06:13:23;;;;;;;;;;;;;;;;;;5046558;28;1491;-62
2022/07/21 06:15:48;;;;;;;;;;;;;;;;;;5062280;28;1956;-61
2022/07/21 06:18:14;;;;;;;;;;;;;;;;;;5061405;28;1435;-62
2022/07/21 06:20:40;;;;;;;;;;;;;;;;;;5044119;28;850;-62
2022/07/21 06:23:05;;;;;;;;;;;;;;;;;;5062275;28;857;-62
2022/07/21 06:25:30;;;;;;;;;;;;;;;;;;5062090;28;985;-62
2022/07/21 06:27:55;;;;;;;;;;;;;;;;;;5040768;28;1526;-62
2022/07/21 06:30:21;;;;;;;;;;;;;;;;;;5041953;28;898;-62
2022/07/21 06:32:46;;;;;;;;;;;;;;;;;;5042320;28;850;-61
2022/07/21 06:35:11;;;;;;;;;;;;;;;;;;5042139;28;942;-61
2022/07/21 06:37:36;;;;;;;;;;;;;;;;;;5041143;28;1953;-61
2022/07/21 06:40:03;;;;;;;;;;;;;;;;;;5042067;28;1040;-61
2022/07/21 06:42:28;;;;;;;;;;;;;;;;;;5041514;28;1534;-62
2022/07/21 06:44:53;;;;;;;;;;;;;;;;;;5042544;28;1479;-61
2022/07/21 06:47:19;;;;;;;;;;;;;;;;;;5040856;28;1275;-61
2022/07/21 06:49:44;;;;;;;;;;;;;;;;;;5041623;28;894;-62
2022/07/21 06:52:09;;;;;;;;;;;;;;;;;;5041752;28;790;-62
2022/07/21 06:54:34;;;;;;;;;;;;;;;;;;5041832;28;791;-62
2022/07/21 06:56:59;;;;;;;;;;;;;;;;;;5041005;28;1898;-62
2022/07/21 06:59:24;;;;;;;;;;;;;;;;;;5060034;28;1638;-62
2022/07/21 07:01:50;;;;;;;;;;;;;;;;;;5061599;28;854;-62
2022/07/21 07:04:15;;;;;;;;;;;;;;;;;;5049903;28;1507;-59
2022/07/21 07:06:40;;;;;;;;;;;;;;;;;;5040916;28;1187;-62
2022/07/21 07:09:05;;;;;;;;;;;;;;;;;;5044291;28;1429;-62
2022/07/21 07:11:33;;;;;;;;;;;;;;;;;;5041563;28;776;-62
2022/07/21 07:13:58;;;;;;;;;;;;;;;;;;5041574;28;803;-62
2022/07/21 07:16:23;;;;;;;;;;;;;;;;;;5054963;28;1956;-62
2022/07/21 07:18:48;;;;;;;;;;;;;;;;;;5061307;28;890;-62
2022/07/21 07:21:13;;;;;;;;;;;;;;;;;;5061240;28;929;-62
2022/07/21 07:23:39;;;;;;;;;;;;;;;;;;5059855;28;1527;-62
2022/07/21 07:26:04;;;;;;;;;;;;;;;;;;5061081;28;1037;-61
2022/07/21 07:28:29;;;;;;;;;;;;;;;;;;5060534;28;1290;-62
2022/07/21 07:30:55;;;;;;;;;;;;;;;;;;5061144;28;1064;-60
2022/07/21 07:33:21;;;;;;;;;;;;;;;;;;5059351;28;1554;-62
2022/07/21 07:35:46;;;;;;;;;;;;;;;;;;5061066;28;1961;-61
2022/07/21 07:38:12;;;;;;;;;;;;;;;;;;5060269;28;1188;-62
2022/07/21 07:40:38;;;;;;;;;;;;;;;;;;5061159;28;790;-62
2022/07/21 07:43:03;;;;;;;;;;;;;;;;;;5060892;28;989;-62
2022/07/21 07:45:28;;;;;;;;;;;;;;;;;;5061092;28;857;-62
2022/07/21 07:47:53;;;;;;;;;;;;;;;;;;5054876;28;1479;-62
2022/07/21 07:50:18;;;;;;;;;;;;;;;;;;5060695;28;906;-62
2022/07/21 07:52:44;;;;;;;;;;;;;;;;;;5054694;28;1431;-62
2022/07/21 07:55:10;;;;;;;;;;;;;;;;;;5026650;28;1779;-62
2022/07/21 07:57:36;;;;;;;;;;;;;;;;;;5049177;28;1893;-62
2022/07/21 08:00:03;;;;;;;;;;;;;;;;;;5064096;28;1024;-62
2022/07/21 08:02:28;;;;;;;;;;;;;;;;;;5064427;28;921;-61
2022/07/21 08:04:53;;;;;;;;;;;;;;;;;;5062923;28;1519;-62
2022/07/21 08:07:18;;;;;;;;;;;;;;;;;;5063411;28;1274;-62
2022/07/21 08:09:44;;;;;;;;;;;;;;;;;;5064290;28;969;-62
2022/07/21 08:12:09;;;;;;;;;;;;;;;;;;5064154;28;854;-62
2022/07/21 08:14:34;;;;;;;;;;;;;;;;;;5064270;28;861;-62
2022/07/21 08:16:59;;;;;;;;;;;;;;;;;;5053541;28;1953;-62
2022/07/21 08:19:25;;;;;;;;;;;;;;;;;;5057263;28;1516;-62
2022/07/21 08:21:50;;;;;;;;;;;;;;;;;;5084071;28;825;-62
2022/07/21 08:24:15;;;;;;;;;;;;;;;;;;5084593;28;882;-62
2022/07/21 08:26:40;;;;;;;;;;;;;;;;;;5083428;28;1191;-60
2022/07/21 08:29:06;;;;;;;;;;;;;;;;;;5083921;28;878;-60
2022/07/21 08:31:31;;;;;;;;;;;;;;;;;;5084003;28;838;-61
2022/07/21 08:33:56;;;;;;;;;;;;;;;;;;5083749;28;942;-61
2022/07/21 08:36:21;;;;;;;;;;;;;;;;;;5069919;28;1961;-61
2022/07/21 08:38:46;;;;;;;;;;;;;;;;;;5043548;28;811;-61
2022/07/21 08:41:12;;;;;;;;;;;;;;;;;;5043674;28;977;-61
2022/07/21 08:43:37;;;;;;;;;;;;;;;;;;5043979;28;1479;-61
2022/07/21 08:46:03;;;;;;;;;;;;;;;;;;5043498;28;886;-61
2022/07/21 08:48:29;;;;;;;;;;;;;;;;;;5043038;28;1523;-61
2022/07/21 08:50:54;;;;;;;;;;;;;;;;;;5043496;28;791;-61
2022/07/21 08:53:19;;;;;;;;;;;;;;;;;;5044638;28;1674;-61
2022/07/21 08:55:44;;;;;;;;;;;;;;;;;;5043538;28;886;-61
2022/07/21 08:58:11;;;;;;;;;;;;;;;;;;5044229;28;1890;-61
2022/07/21 09:00:37;;;;;;;;;;;;;;;;;;5043412;28;898;-61
2022/07/21 09:03:11;;;;;;;;;;;;;;;;;;5043239;28;949;-61
2022/07/21 09:05:36;;;;;;;;;;;;;;;;;;5042760;28;859;-61
2022/07/21 09:08:02;;;;;;;;;;;;;;;;;;5042523;28;1196;-61
2022/07/21 09:10:29;;;;;;;;;;;;;;;;;;5044650;28;1443;-61
2022/07/21 09:13:00;;;;;;;;;;;;;;;;;;5063143;28;1017;-61
2022/07/21 09:15:26;;;;;;;;;;;;;;;;;;5063452;28;803;-61
2022/07/21 09:18:10;;;;;;;;;;;;;;;;;;5062309;28;1921;-61
2022/07/21 09:20:35;;;;;;;;;;;;;;;;;;5063341;28;925;-62
2022/07/21 09:23:02;;;;;;;;;;;;;;;;;;5063133;28;876;-62
2022/07/21 09:25:38;;;;;;;;;;;;;;;;;;5063213;28;934;-61
2022/07/21 09:28:07;;;;;;;;;;;;;;;;;;5061760;28;1463;-61
2022/07/21 09:30:46;;;;;;;;;;;;;;;;;;5062753;28;881;-61
2022/07/21 09:33:19;;;;;;;;;;;;;;;;;;5051789;28;1478;-62
2022/07/21 09:35:51;;;;;;;;;;;;;;;;;;5042811;28;880;-61
2022/07/21 09:38:16;;;;;;;;;;;;;;;;;;5036826;28;1509;-62
2022/07/21 09:40:46;;;;;;;;;;;;;;;;;;5062704;28;968;-63
2022/07/21 09:43:11;;;;;;;;;;;;;;;;;;5044910;28;1330;-62
2022/07/21 09:45:37;;;;;;;;;;;;;;;;;;5061140;28;1499;-62
2022/07/21 09:48:02;;;;;;;;;;;;;;;;;;5061860;28;1132;-62
2022/07/21 09:50:27;;;;;;;;;;;;;;;;;;5062592;28;973;-62
2022/07/21 09:52:53;;;;;;;;;;;;;;;;;;5062351;28;1628;-62
2022/07/21 09:55:18;;;;;;;;;;;;;;;;;;5062844;28;850;-63
2022/07/21 09:57:44;;;;;;;;;;;;;;;;;;5061578;28;1893;-62
2022/07/21 10:00:12;;;;;;;;;;;;;;;;;;5062615;28;834;-63
2022/07/21 10:02:37;;;;;;;;;;;;;;;;;;5048463;28;1589;-63
2022/07/21 10:05:04;;;;;;;;;;;;;;;;;;5042545;28;906;-63
2022/07/21 10:07:30;;;;;;;;;;;;;;;;;;5041907;28;1282;-62
2022/07/21 10:09:56;;;;;;;;;;;;;;;;;;5044016;28;1010;-62
2022/07/21 10:12:22;;;;;;;;;;;;;;;;;;5082527;28;798;-62
2022/07/21 10:14:47;;;;;;;;;;;;;;;;;;5082372;28;806;-62
2022/07/21 10:17:16;;;;;;;;;;;;;;;;;;5060239;28;2047;-62
2022/07/21 10:19:52;;;;;;;;;;;;;;;;;;5040349;28;1468;-62
2022/07/21 10:22:28;;;;;;;;;;;;;;;;;;5062147;28;1415;-62
2022/07/21 10:24:54;;;;;;;;;;;;;;;;;;5062309;28;922;-62
2022/07/21 10:27:19;;;;;;;;;;;;;;;;;;5061088;28;1590;-62
2022/07/21 10:29:47;;;;;;;;;;;;;;;;;;5062142;28;886;-62
2022/07/21 10:32:14;;;;;;;;;;;;;;;;;;5049085;28;1613;-61
2022/07/21 10:34:39;;;;;;;;;;;;;;;;;;5042109;28;1020;-62
2022/07/21 10:37:04;;;;;;;;;;;;;;;;;;5041107;28;1898;-62
2022/07/21 10:39:31;;;;;;;;;;;;;;;;;;5043215;28;1435;-62
2022/07/21 10:41:59;;;;;;;;;;;;;;;;;;5041826;28;792;-62
2022/07/21 10:44:27;;;;;;;;;;;;;;;;;;5041873;28;870;-62
2022/07/21 10:47:05;;;;;;;;;;;;;;;;;;5041217;28;1184;-62
2022/07/21 10:49:40;;;;;;;;;;;;;;;;;;5042646;28;1880;-62
2022/07/21 10:52:05;;;;;;;;;;;;;;;;;;5041854;28;881;-62
2022/07/21 10:54:31;;;;;;;;;;;;;;;;;;5041584;28;826;-62
2022/07/21 10:57:15;;;;;;;;;;;;;;;;;;5040979;28;1898;-62
2022/07/21 10:59:58;;;;;;;;;;;;;;;;;;5041576;28;906;-62
2022/07/21 11:02:28;;;;;;;;;;;;;;;;;;5041624;28;957;-62
2022/07/21 11:05:05;;;;;;;;;;;;;;;;;;5041545;28;791;-62
2022/07/21 11:08:06;;;;;;;;;;;;;;;;;;5060081;28;1602;-63
2022/07/21 11:10:31;;;;;;;;;;;;;;;;;;4999546;28;1324;-62
2022/07/21 11:12:57;;;;;;;;;;;;;;;;;;5048396;28;1385;-62
2022/07/21 11:15:41;;;;;;;;;;;;;;;;;;5061495;28;850;-61
2022/07/21 11:18:07;;;;;;;;;;;;;;;;;;5049053;28;1953;-62
2022/07/21 11:20:33;;;;;;;;;;;;;;;;;;5041360;28;913;-62
2022/07/21 11:23:02;;;;;;;;;;;;;;;;;;5047642;28;1471;-63
2022/07/21 11:25:28;;;;;;;;;;;;;;;;;;5061542;28;833;-60
2022/07/21 11:27:54;;;;;;;;;;;;;;;;;;5059851;28;1183;-62
2022/07/21 11:30:19;;;;;;;;;;;;;;;;;;5061316;28;861;-61
2022/07/21 11:32:48;;;;;;;;;;;;;;;;;;5060734;28;983;-62
2022/07/21 11:35:13;;;;;;;;;;;;;;;;;;5061228;28;978;-62
2022/07/21 11:37:41;;;;;;;;;;;;;;;;;;5060684;28;1981;-62
2022/07/21 11:40:11;;;;;;;;;;;;;;;;;;5056315;28;1500;-62
2022/07/21 11:42:37;;;;;;;;;;;;;;;;;;5041173;28;909;-63
2022/07/21 11:45:02;;;;;;;;;;;;;;;;;;5040871;28;795;-63
2022/07/21 11:47:28;;;;;;;;;;;;;;;;;;5040226;28;1176;-62
2022/07/21 11:49:54;;;;;;;;;;;;;;;;;;5040995;28;835;-60
2022/07/21 11:52:23;;;;;;;;;;;;;;;;;;5041115;28;811;-61
2022/07/21 11:54:52;;;;;;;;;;;;;;;;;;5041972;28;1435;-61
2022/07/21 11:57:18;;;;;;;;;;;;;;;;;;5039938;28;1893;-62
2022/07/21 11:59:44;;;;;;;;;;;;;;;;;;5040885;28;1071;-61
2022/07/21 12:02:11;;;;;;;;;;;;;;;;;;5053550;28;1157;-62
2022/07/21 12:04:50;;;;;;;;;;;;;;;;;;5040912;28;807;-61
2022/07/21 12:07:20;;;;;;;;;;;;;;;;;;5043930;28;1518;-61
2022/07/21 12:09:46;;;;;;;;;;;;;;;;;;5023033;28;1454;-61
2022/07/21 12:12:11;;;;;;;;;;;;;;;;;;5040418;28;874;-61
2022/07/21 12:14:39;;;;;;;;;;;;;;;;;;5040909;28;846;-61
2022/07/21 12:17:05;;;;;;;;;;;;;;;;;;5039934;28;1890;-61
2022/07/21 12:19:30;;;;;;;;;;;;;;;;;;5040655;28;811;-62
2022/07/21 12:21:55;;;;;;;;;;;;;;;;;;5040653;28;799;-61
2022/07/21 12:24:23;;;;;;;;;;;;;;;;;;5040709;28;1492;-61
2022/07/21 12:26:48;;;;;;;;;;;;;;;;;;5039840;28;1267;-61
2022/07/21 12:29:26;;;;;;;;;;;;;;;;;;5040515;28;986;-61
2022/07/21 12:31:52;;;;;;;;;;;;;;;;;;5040474;28;1033;-62
2022/07/21 12:34:18;;;;;;;;;;;;;;;;;;5040347;28;869;-61
2022/07/21 12:36:44;;;;;;;;;;;;;;;;;;5039759;28;1906;-62
2022/07/21 12:39:55;;;;;;;;;;;;;;;;;;5041339;28;1503;-61
2022/07/21 12:42:03;;;;;;;;;;;;;;;;;;5043515;28;1314;-62
2022/07/21 12:44:29;;;;;;;;;;;;;;;;;;5043853;28;850;-62
2022/07/21 12:46:54;;;;;;;;;;;;;;;;;;5042944;28;1184;-61
2022/07/21 12:49:20;;;;;;;;;;;;;;;;;;5043754;28;886;-61
2022/07/21 12:51:55;;;;;;;;;;;;;;;;;;5044101;28;1440;-62
2022/07/21 12:54:20;;;;;;;;;;;;;;;;;;5063448;28;1467;-61
2022/07/21 12:56:45;;;;;;;;;;;;;;;;;;5059694;28;1894;-61
2022/07/21 12:59:14;;;;;;;;;;;;;;;;;;5043545;28;961;-62
2022/07/21 13:01:39;;;;;;;;;;;;;;;;;;5043577;28;850;-61
2022/07/21 13:04:04;;;;;;;;;;;;;;;;;;5042394;28;839;-62
2022/07/21 13:06:30;;;;;;;;;;;;;;;;;;5042673;28;1184;-62
2022/07/21 13:08:55;;;;;;;;;;;;;;;;;;5043501;28;871;-62
2022/07/21 13:11:20;;;;;;;;;;;;;;;;;;5043557;28;1546;-62
2022/07/21 13:13:46;;;;;;;;;;;;;;;;;;5043412;28;961;-62
2022/07/21 13:16:11;;;;;;;;;;;;;;;;;;5042634;28;1898;-62
2022/07/21 13:18:36;;;;;;;;;;;;;;;;;;5042867;28;997;-62
2022/07/21 13:21:02;;;;;;;;;;;;;;;;;;5043011;28;964;-62
2022/07/21 13:23:27;;;;;;;;;;;;;;;;;;5043165;28;850;-62
2022/07/21 13:25:52;;;;;;;;;;;;;;;;;;5042946;28;1080;-62
2022/07/21 13:28:18;;;;;;;;;;;;;;;;;;5043698;28;1555;-62
2022/07/21 13:30:44;;;;;;;;;;;;;;;;;;5043231;28;1526;-63
2022/07/21 13:33:09;;;;;;;;;;;;;;;;;;5025101;28;1412;-62
2022/07/21 13:35:35;;;;;;;;;;;;;;;;;;5042874;28;1400;-62
2022/07/21 13:38:00;;;;;;;;;;;;;;;;;;5042034;28;1894;-62
2022/07/21 13:40:26;;;;;;;;;;;;;;;;;;5042828;28;802;-62
2022/07/21 13:42:51;;;;;;;;;;;;;;;;;;5052888;28;1545;-62
2022/07/21 13:45:17;;;;;;;;;;;;;;;;;;5062860;28;972;-62
2022/07/21 13:47:42;;;;;;;;;;;;;;;;;;5051036;28;1443;-61
2022/07/21 13:50:08;;;;;;;;;;;;;;;;;;5042326;28;993;-62
2022/07/21 13:52:33;;;;;;;;;;;;;;;;;;5050123;28;1484;-62
2022/07/21 13:54:59;;;;;;;;;;;;;;;;;;5042692;28;807;-62
2022/07/21 13:57:24;;;;;;;;;;;;;;;;;;5041920;28;1890;-62
2022/07/21 13:59:49;;;;;;;;;;;;;;;;;;5042328;28;834;-62
2022/07/21 14:02:15;;;;;;;;;;;;;;;;;;5042554;28;930;-62
2022/07/21 14:04:40;;;;;;;;;;;;;;;;;;5042372;28;973;-62
2022/07/21 14:07:05;;;;;;;;;;;;;;;;;;5042095;28;1452;-62
2022/07/21 14:09:31;;;;;;;;;;;;;;;;;;5042600;28;803;-62
2022/07/21 14:11:57;;;;;;;;;;;;;;;;;;5042243;28;877;-62
2022/07/21 14:14:22;;;;;;;;;;;;;;;;;;5042552;28;834;-62
2022/07/21 14:16:49;;;;;;;;;;;;;;;;;;5041430;28;1882;-62
2022/07/21 14:19:14;;;;;;;;;;;;;;;;;;5042434;28;896;-62
2022/07/21 14:21:39;;;;;;;;;;;;;;;;;;5042184;28;981;-62
2022/07/21 14:26:49;;;;;;;;;;;;;;;;;;5041296;28;1274;-62
2022/07/21 14:29:14;;;;;;;;;;;;;;;;;;5042196;28;949;-62
2022/07/21 14:31:39;;;;;;;;;;;;;;;;;;5042076;28;1424;-62
2022/07/21 14:34:04;;;;;;;;;;;;;;;;;;5041982;28;911;-62
2022/07/21 14:36:29;;;;;;;;;;;;;;;;;;5042194;28;2024;-62
2022/07/21 14:38:55;;;;;;;;;;;;;;;;;;5041709;28;883;-62
2022/07/21 14:41:20;;;;;;;;;;;;;;;;;;5045902;28;1444;-62
2022/07/21 14:43:45;;;;;;;;;;;;;;;;;;5061446;28;977;-62
2022/07/21 14:46:10;;;;;;;;;;;;;;;;;;5061824;28;1216;-62
2022/07/21 14:48:36;;;;;;;;;;;;;;;;;;5054883;28;1432;-62
2022/07/21 14:51:01;;;;;;;;;;;;;;;;;;5041739;28;1044;-62
2022/07/21 14:53:26;;;;;;;;;;;;;;;;;;5024265;28;847;-62
2022/07/21 14:55:51;;;;;;;;;;;;;;;;;;5041653;28;985;-62
2022/07/21 14:58:16;;;;;;;;;;;;;;;;;;5042293;28;1964;-62
2022/07/21 15:00:42;;;;;;;;;;;;;;;;;;5061548;28;1043;-62
2022/07/21 15:03:07;;;;;;;;;;;;;;;;;;5060912;28;1051;-62
2022/07/21 15:05:32;;;;;;;;;;;;;;;;;;5061702;28;798;-62
2022/07/21 15:07:57;;;;;;;;;;;;;;;;;;5042782;28;1412;-62
2022/07/21 15:10:23;;;;;;;;;;;;;;;;;;5061617;28;953;-62
2022/07/21 15:12:48;;;;;;;;;;;;;;;;;;5061393;28;822;-62
2022/07/21 15:15:14;;;;;;;;;;;;;;;;;;5042796;28;1444;-62
2022/07/21 15:17:39;;;;;;;;;;;;;;;;;;5059491;28;1894;-62
2022/07/21 15:20:05;;;;;;;;;;;;;;;;;;5061661;28;870;-62
2022/07/21 15:22:31;;;;;;;;;;;;;;;;;;5061141;28;1511;-62
2022/07/21 15:24:57;;;;;;;;;;;;;;;;;;5061229;28;834;-61
2022/07/21 15:27:22;;;;;;;;;;;;;;;;;;5060419;28;1534;-61
2022/07/21 15:29:47;;;;;;;;;;;;;;;;;;5061153;28;830;-62
2022/07/21 15:32:12;;;;;;;;;;;;;;;;;;5044702;28;1455;-62
2022/07/21 15:34:37;;;;;;;;;;;;;;;;;;5041214;28;883;-62
2022/07/21 15:37:03;;;;;;;;;;;;;;;;;;5040371;28;1981;-62
2022/07/21 15:39:28;;;;;;;;;;;;;;;;;;5041219;28;815;-62
2022/07/21 15:41:54;;;;;;;;;;;;;;;;;;5041064;28;862;-62
2022/07/21 15:44:19;;;;;;;;;;;;;;;;;;5041312;28;866;-62
2022/07/21 15:46:45;;;;;;;;;;;;;;;;;;5040136;28;1180;-62
2022/07/21 15:49:11;;;;;;;;;;;;;;;;;;5042411;28;1519;-62
2022/07/21 15:51:36;;;;;;;;;;;;;;;;;;5040919;28;842;-62
2022/07/21 15:54:01;;;;;;;;;;;;;;;;;;5041093;28;1550;-62
2022/07/21 15:56:27;;;;;;;;;;;;;;;;;;5039958;28;1890;-61
2022/07/21 16:01:56;;;;;;;;;;;;;;;;;;4960102;28;1426;-62
2022/07/21 16:04:21;;;;;;;;;;;;;;;;;;4956677;28;1585;-62
2022/07/21 16:06:46;;;;;;;;;;;;;;;;;;4985685;28;1184;-62
2022/07/21 16:09:11;;;;;;;;;;;;;;;;;;5040603;28;985;-62
2022/07/21 16:11:37;;;;;;;;;;;;;;;;;;5040718;28;1464;-62
2022/07/21 16:14:02;;;;;;;;;;;;;;;;;;5041893;28;842;-62
2022/07/21 16:16:29;;;;;;;;;;;;;;;;;;5043332;28;1898;-62
2022/07/21 16:18:54;;;;;;;;;;;;;;;;;;5026422;28;1314;-62
2022/07/21 16:21:19;;;;;;;;;;;;;;;;;;5027448;28;1489;-62
2022/07/21 16:23:45;;;;;;;;;;;;;;;;;;5044030;28;957;-62
2022/07/21 16:26:10;;;;;;;;;;;;;;;;;;5043593;28;1227;-63
2022/07/21 16:28:35;;;;;;;;;;;;;;;;;;5043598;28;1005;-62
2022/07/21 16:31:01;;;;;;;;;;;;;;;;;;5043913;28;977;-62
2022/07/21 16:33:26;;;;;;;;;;;;;;;;;;5044230;28;808;-62
2022/07/21 16:35:51;;;;;;;;;;;;;;;;;;5043703;28;923;-62
2022/07/21 16:38:16;;;;;;;;;;;;;;;;;;5044340;28;1898;-62
2022/07/21 16:40:41;;;;;;;;;;;;;;;;;;5043930;28;1547;-62
2022/07/21 16:43:07;;;;;;;;;;;;;;;;;;5043869;28;841;-62
2022/07/21 16:45:33;;;;;;;;;;;;;;;;;;5043864;28;1510;-62
2022/07/21 16:47:58;;;;;;;;;;;;;;;;;;5042971;28;1278;-62
2022/07/21 16:50:23;;;;;;;;;;;;;;;;;;5043697;28;858;-62
2022/07/21 16:52:48;;;;;;;;;;;;;;;;;;5025787;28;934;-62
2022/07/21 16:55:14;;;;;;;;;;;;;;;;;;5055335;28;1491;-62
2022/07/21 16:57:39;;;;;;;;;;;;;;;;;;5062930;28;1980;-62
2022/07/21 17:00:06;;;;;;;;;;;;;;;;;;5063357;28;814;-62
2022/07/21 17:02:31;;;;;;;;;;;;;;;;;;5044912;28;1676;-62
2022/07/21 17:04:56;;;;;;;;;;;;;;;;;;5043555;28;941;-62
2022/07/21 17:07:21;;;;;;;;;;;;;;;;;;5042848;28;1511;-62
2022/07/21 17:09:47;;;;;;;;;;;;;;;;;;5043327;28;787;-63
2022/07/21 17:12:13;;;;;;;;;;;;;;;;;;5044581;28;1468;-63